createdAt,value
2023-03-24T00:01:32.625Z,99945.09
2023-03-24T00:04:01.248Z,99945.88
2023-03-24T00:06:29.281Z,99949.50
2023-03-24T00:08:57.843Z,99947.56
2023-03-24T00:11:26.635Z,99938.63
2023-03-24T00:13:58.629Z,99942.03
2023-03-24T00:16:30.076Z,99942.03
2023-03-24T00:19:01.073Z,99935.97
2023-03-24T00:21:32.712Z,99936.94
2023-03-24T00:24:05.014Z,99940.47
2023-03-24T00:26:39.266Z,99939.00
2023-03-24T00:29:11.963Z,99939.50
2023-03-24T00:31:43.385Z,99936.22
2023-03-24T00:34:13.807Z,99923.97
2023-03-24T00:36:44.058Z,99920.28
2023-03-24T00:39:14.565Z,99914.44
2023-03-24T00:41:47.844Z,99922.94
2023-03-24T00:44:18.324Z,99915.66
2023-03-24T00:47:01.722Z,99911.72
2023-03-24T00:49:47.197Z,99911.34
2023-03-24T00:52:26.356Z,99903.84
2023-03-24T00:54:58.374Z,99901.88
2023-03-24T00:57:34.833Z,99894.13
2023-03-24T01:00:19.901Z,99889.44
2023-03-24T01:02:55.189Z,99895.72
2023-03-24T01:05:30.584Z,99902.84
2023-03-24T01:08:04.589Z,99894.28
2023-03-24T01:10:50.583Z,99885.19
2023-03-24T01:13:30.387Z,99875.31
2023-03-24T01:16:00.360Z,99867.94
2023-03-24T01:18:30.041Z,99870.84
2023-03-24T01:21:01.465Z,99863.28
2023-03-24T01:23:31.667Z,99864.84
2023-03-24T01:26:09.094Z,99844.97
2023-03-24T01:28:41.212Z,99845.72
2023-03-24T01:31:12.517Z,99846.13
2023-03-24T01:33:42.774Z,99841.84
2023-03-24T01:36:12.568Z,99839.44
2023-03-24T01:38:41.195Z,99829.38
2023-03-24T01:41:09.379Z,99819.31
2023-03-24T01:43:38.092Z,99821.56
2023-03-24T01:46:21.485Z,99819.97
2023-03-24T01:49:08.539Z,99816.25
2023-03-24T01:51:47.317Z,99814.63
2023-03-24T01:54:43.163Z,99815.56
2023-03-24T01:57:35.801Z,99798.25
2023-03-24T02:00:16.755Z,99798.34
2023-03-24T02:02:58.798Z,99794.06
2023-03-24T02:05:37.104Z,99794.78
2023-03-24T02:08:48.661Z,99791.91
2023-03-24T02:11:22.997Z,99785.09
2023-03-24T02:13:53.514Z,99780.47
2023-03-24T02:17:10.151Z,99770.78
2023-03-24T02:20:11.940Z,99778.19
2023-03-24T02:23:34.718Z,99765.38
2023-03-24T02:27:13.622Z,99760.28
2023-03-24T02:30:30.671Z,99761.88
2023-03-24T02:33:59.627Z,99749.53
2023-03-24T02:37:18.903Z,99758.22
2023-03-24T02:40:25.362Z,99752.44
2023-03-24T02:43:23.219Z,99746.41
2023-03-24T02:46:33.069Z,99752.09
2023-03-24T02:50:17.905Z,99747.38
2023-03-24T02:53:06.938Z,99737.28
2023-03-24T02:55:57.902Z,99734.97
2023-03-24T02:58:49.055Z,99723.81
2023-03-24T03:02:02.071Z,99725.88
2023-03-24T03:04:50.805Z,99725.88
2023-03-24T03:07:37.661Z,99724.16
2023-03-24T03:10:24.051Z,99720.44
2023-03-24T03:13:05.080Z,99713.75
2023-03-24T03:15:50.916Z,99711.75
2023-03-24T03:18:43.681Z,99706.59
2023-03-24T03:21:21.139Z,99706.34
2023-03-24T03:24:11.369Z,99701.84
2023-03-24T03:26:43.258Z,99697.09
2023-03-24T03:29:26.605Z,99694.22
2023-03-24T03:32:08.292Z,99688.56
2023-03-24T03:35:03.502Z,99686.72
2023-03-24T03:38:09.424Z,99681.28
2023-03-24T03:40:52.469Z,99676.78
2023-03-24T03:43:25.085Z,99674.84
2023-03-24T03:45:56.632Z,99666.25
2023-03-24T03:48:29.404Z,99669.75
2023-03-24T03:51:13.291Z,99663.97
2023-03-24T03:54:05.772Z,99659.78
2023-03-24T03:56:39.341Z,99665.00
2023-03-24T03:59:31.070Z,99659.78
2023-03-24T04:02:42.906Z,99653.69
2023-03-24T04:05:26.286Z,99649.50
2023-03-24T04:08:32.975Z,99641.44
2023-03-24T04:11:33.066Z,99641.09
2023-03-24T04:14:26.407Z,99634.97
2023-03-24T04:18:02.075Z,99630.56
2023-03-24T04:21:07.777Z,99626.97
2023-03-24T04:24:05.892Z,99626.09
2023-03-24T04:27:28.484Z,99620.38
2023-03-24T04:30:27.453Z,99619.34
2023-03-24T04:33:18.148Z,99617.34
2023-03-24T04:36:19.288Z,99606.72
2023-03-24T04:38:55.035Z,99599.13
2023-03-24T04:41:32.064Z,99596.25
2023-03-24T04:44:01.518Z,99599.03
2023-03-24T04:46:31.009Z,99595.69
2023-03-24T04:49:03.240Z,99596.22
2023-03-24T04:51:34.133Z,99600.59
2023-03-24T04:54:04.482Z,99599.25
2023-03-24T04:56:52.889Z,99587.88
2023-03-24T04:59:22.500Z,99586.47
2023-03-24T05:01:52.236Z,99591.72
2023-03-24T05:04:28.251Z,99583.03
2023-03-24T05:06:58.461Z,99574.56
2023-03-24T05:09:31.672Z,99576.00
2023-03-24T05:12:02.164Z,99578.22
2023-03-24T05:14:32.414Z,99575.41
2023-03-24T05:17:02.546Z,99576.06
2023-03-24T05:19:32.926Z,99580.22
2023-03-24T05:22:03.089Z,99574.44
2023-03-24T05:24:32.724Z,99560.84
2023-03-24T05:27:02.497Z,99562.56
2023-03-24T05:29:33.369Z,99570.06
2023-03-24T05:32:02.053Z,99570.75
2023-03-24T05:34:32.123Z,99566.16
2023-03-24T05:37:01.947Z,99576.44
2023-03-24T05:39:31.756Z,99571.38
2023-03-24T05:41:58.997Z,99564.50
2023-03-24T05:44:26.356Z,99569.03
2023-03-24T05:46:56.392Z,99569.03
2023-03-24T05:49:26.233Z,99566.00
2023-03-24T05:51:56.616Z,99560.16
2023-03-24T05:54:26.528Z,99554.53
2023-03-24T05:56:56.651Z,99557.66
2023-03-24T05:59:26.614Z,99547.91
2023-03-24T06:01:59.433Z,99538.78
2023-03-24T06:04:30.636Z,99537.31
2023-03-24T06:07:01.609Z,99541.19
2023-03-24T06:09:40.857Z,99545.31
2023-03-24T06:12:16.383Z,99534.53
2023-03-24T06:14:46.124Z,99530.50
2023-03-24T06:17:15.302Z,99532.59
2023-03-24T06:19:49.787Z,99532.34
2023-03-24T06:22:21.252Z,99527.56
2023-03-24T06:24:50.358Z,99519.25
2023-03-24T06:27:21.872Z,99523.72
2023-03-24T06:29:55.382Z,99518.53
2023-03-24T06:32:27.279Z,99519.97
2023-03-24T06:34:55.984Z,99512.19
2023-03-24T06:37:27.494Z,99512.56
2023-03-24T06:39:56.356Z,99510.31
2023-03-24T06:42:27.364Z,99509.97
2023-03-24T06:44:56.448Z,99507.69
2023-03-24T06:47:26.291Z,99499.19
2023-03-24T06:49:55.808Z,99506.75
2023-03-24T06:52:25.823Z,99499.41
2023-03-24T06:54:55.917Z,99512.25
2023-03-24T06:57:26.190Z,99500.16
2023-03-24T06:59:56.259Z,99498.25
2023-03-24T07:02:26.084Z,99497.00
2023-03-24T07:04:56.089Z,99494.84
2023-03-24T07:09:57.680Z,99484.59
2023-03-24T07:12:28.542Z,99480.13
2023-03-24T07:14:59.172Z,99479.91
2023-03-24T07:17:29.294Z,99474.59
2023-03-24T07:19:59.914Z,99475.09
2023-03-24T07:22:30.127Z,99470.28
2023-03-24T07:25:04.684Z,99471.72
2023-03-24T07:27:36.070Z,99463.25
2023-03-24T07:30:09.378Z,99469.47
2023-03-24T07:32:42.490Z,99469.38
2023-03-24T07:35:13.697Z,99460.84
2023-03-24T07:37:44.610Z,99456.16
2023-03-24T07:40:16.314Z,99463.00
2023-03-24T07:42:47.382Z,99459.56
2023-03-24T07:45:18.379Z,99461.88
2023-03-24T07:47:48.420Z,99457.72
2023-03-24T07:50:18.598Z,99465.03
2023-03-24T07:52:50.923Z,99473.69
2023-03-24T07:55:21.001Z,99472.00
2023-03-24T07:57:52.443Z,99473.31
2023-03-24T08:00:25.140Z,99473.06
2023-03-24T08:02:55.870Z,99472.88
2023-03-24T08:05:30.145Z,99471.44
2023-03-24T08:08:00.369Z,99469.69
2023-03-24T08:10:31.614Z,99465.91
2023-03-24T08:13:02.078Z,99461.38
2023-03-24T08:15:31.916Z,99467.16
2023-03-24T08:18:02.104Z,99462.84
2023-03-24T08:20:32.290Z,99450.53
2023-03-24T08:23:05.135Z,99456.91
2023-03-24T08:25:36.585Z,99464.28
2023-03-24T08:28:07.606Z,99460.72
2023-03-24T08:30:46.307Z,99462.47
2023-03-24T08:33:16.991Z,99455.81
2023-03-24T08:35:48.314Z,99449.28
2023-03-24T08:38:19.194Z,99449.38
2023-03-24T08:40:50.346Z,99457.06
2023-03-24T08:43:23.409Z,99445.19
2023-03-24T08:45:53.600Z,99446.28
2023-03-24T08:48:24.739Z,99466.94
2023-03-24T08:50:55.840Z,99448.19
2023-03-24T08:53:25.996Z,99443.88
2023-03-24T08:55:56.249Z,99445.69
2023-03-24T08:58:27.182Z,99451.72
2023-03-24T09:00:57.454Z,99459.47
2023-03-24T09:03:27.616Z,99461.13
2023-03-24T09:05:58.783Z,99469.47
2023-03-24T09:08:28.971Z,99466.28
2023-03-24T09:10:59.691Z,99477.69
2023-03-24T09:13:27.777Z,99482.88
2023-03-24T09:16:03.666Z,99477.38
2023-03-24T09:18:32.011Z,99476.75
2023-03-24T09:21:02.546Z,99475.25
2023-03-24T09:23:32.675Z,99471.81
2023-03-24T09:26:04.991Z,99491.47
2023-03-24T09:28:34.645Z,99488.06
2023-03-24T09:31:07.058Z,99491.06
2023-03-24T09:33:37.202Z,99483.91
2023-03-24T09:36:08.035Z,99482.50
2023-03-24T09:38:37.726Z,99479.91
2023-03-24T09:41:28.301Z,99478.19
2023-03-24T09:44:31.617Z,99483.72
2023-03-24T09:47:49.326Z,99484.38
2023-03-24T09:50:35.516Z,99491.88
2023-03-24T09:53:49.869Z,99485.00
2023-03-24T09:56:24.051Z,99491.25
2023-03-24T09:59:13.746Z,99495.97
2023-03-24T10:01:44.621Z,99505.34
2023-03-24T10:04:24.512Z,99502.59
2023-03-24T10:07:27.807Z,99511.22
2023-03-24T10:10:01.207Z,99498.53
2023-03-24T10:12:43.769Z,99499.88
2023-03-24T10:16:04.782Z,99497.53
2023-03-24T10:18:56.188Z,99486.03
2023-03-24T10:21:31.936Z,99494.47
2023-03-24T10:24:51.749Z,99502.66
2023-03-24T10:27:40.146Z,99498.06
2023-03-24T10:30:29.640Z,99506.59
2023-03-24T10:32:59.757Z,99499.34
2023-03-24T10:35:52.007Z,99483.47
2023-03-24T10:38:24.390Z,99506.78
2023-03-24T10:40:56.401Z,99508.44
2023-03-24T10:43:28.501Z,99499.78
2023-03-24T10:46:02.379Z,99493.44
2023-03-24T10:48:45.796Z,99487.41
2023-03-24T10:51:32.969Z,99488.44
2023-03-24T10:54:17.424Z,99499.91
2023-03-24T10:56:57.515Z,99510.00
2023-03-24T11:00:16.737Z,99511.28
2023-03-24T11:02:59.227Z,99523.47
2023-03-24T11:05:37.896Z,99516.69
2023-03-24T11:08:40.386Z,99530.63
2023-03-24T11:11:32.059Z,99527.78
2023-03-24T11:14:04.181Z,99534.03
2023-03-24T11:16:44.170Z,99519.84
2023-03-24T11:19:24.895Z,99534.50
2023-03-24T11:22:05.852Z,99527.53
2023-03-24T11:24:38.921Z,99532.19
2023-03-24T11:27:18.560Z,99525.84
2023-03-24T11:29:55.662Z,99518.41
2023-03-24T11:32:30.082Z,99530.28
2023-03-24T11:35:18.679Z,99519.53
2023-03-24T11:37:49.307Z,99517.88
2023-03-24T11:40:26.229Z,99519.09
2023-03-24T11:43:03.083Z,99523.72
2023-03-24T11:46:07.737Z,99519.78
2023-03-24T11:48:49.996Z,99516.50
2023-03-24T11:51:39.649Z,99526.63
2023-03-24T11:54:18.793Z,99525.41
2023-03-24T11:57:04.632Z,99532.97
2023-03-24T12:00:15.239Z,99537.63
2023-03-24T12:02:53.849Z,99541.41
2023-03-24T12:05:56.428Z,99534.88
2023-03-24T12:09:09.495Z,99533.16
2023-03-24T12:12:35.082Z,99509.16
2023-03-24T12:15:27.238Z,99500.44
2023-03-24T12:18:41.347Z,99506.94
2023-03-24T12:21:41.780Z,99511.91
2023-03-24T12:24:58.489Z,99509.19
2023-03-24T12:28:06.394Z,99525.47
2023-03-24T12:31:19.607Z,99530.66
2023-03-24T12:34:51.031Z,99547.00
2023-03-24T12:38:30.539Z,99558.09
2023-03-24T12:41:43.437Z,99530.13
2023-03-24T12:44:57.276Z,99530.53
2023-03-24T12:48:01.166Z,99529.03
2023-03-24T12:51:03.117Z,99533.34
2023-03-24T12:53:45.514Z,99528.41
2023-03-24T12:56:22.923Z,99531.59
2023-03-24T12:59:10.627Z,99529.94
2023-03-24T13:02:27.601Z,99537.16
2023-03-24T13:05:08.743Z,99536.88
2023-03-24T13:07:44.068Z,99542.28
2023-03-24T13:10:27.058Z,99543.16
2023-03-24T13:13:23.641Z,99539.06
2023-03-24T13:16:03.429Z,99542.69
2023-03-24T13:18:44.578Z,99552.16
2023-03-24T13:21:22.451Z,99557.41
2023-03-24T13:24:15.123Z,99550.59
2023-03-24T13:27:24.224Z,99561.09
2023-03-24T13:30:28.407Z,99557.91
2023-03-24T13:33:25.149Z,99532.31
2023-03-24T13:36:59.157Z,99533.59
2023-03-24T13:39:33.885Z,99571.06
2023-03-24T13:42:04.118Z,99583.31
2023-03-24T13:44:46.669Z,99624.56
2023-03-24T13:47:19.288Z,99632.38
2023-03-24T13:50:06.908Z,99626.84
2023-03-24T13:52:45.254Z,99624.47
2023-03-24T13:55:39.770Z,99633.91
2023-03-24T13:58:28.583Z,99635.41
2023-03-24T14:01:14.916Z,99616.28
2023-03-24T14:04:19.914Z,99604.53
2023-03-24T14:06:59.958Z,99607.53
2023-03-24T14:09:35.612Z,99612.06
2023-03-24T14:12:16.250Z,99605.97
2023-03-24T14:15:22.558Z,99612.28
2023-03-24T14:18:33.643Z,99604.38
2023-03-24T14:21:08.635Z,99597.84
2023-03-24T14:23:46.946Z,99607.19
2023-03-24T14:26:37.299Z,99615.00
2023-03-24T14:29:06.527Z,99592.53
2023-03-24T14:31:36.759Z,99578.28
2023-03-24T14:34:21.430Z,99549.56
2023-03-24T14:37:06.435Z,99550.66
2023-03-24T14:39:52.218Z,99534.88
2023-03-24T14:42:34.428Z,99543.50
2023-03-24T14:45:33.172Z,99546.84
2023-03-24T14:48:39.548Z,99544.34
2023-03-24T14:51:42.120Z,99555.88
2023-03-24T14:54:30.685Z,99569.22
2023-03-24T14:56:59.847Z,99569.91
2023-03-24T15:00:15.108Z,99587.63
2023-03-24T15:02:51.087Z,99587.75
2023-03-24T15:05:25.588Z,99583.44
2023-03-24T15:08:26.887Z,99597.59
2023-03-24T15:11:10.015Z,99599.59
2023-03-24T15:13:54.580Z,99575.66
2023-03-24T15:16:35.879Z,99567.28
2023-03-24T15:19:21.856Z,99579.03
2023-03-24T15:22:06.058Z,99567.28
2023-03-24T15:24:41.397Z,99590.31
2023-03-24T15:27:24.073Z,99592.66
2023-03-24T15:29:59.999Z,99587.03
2023-03-24T15:32:39.100Z,99585.75
2023-03-24T15:35:18.498Z,99597.63
2023-03-24T15:37:57.498Z,99599.94
2023-03-24T15:40:28.041Z,99597.03
2023-03-24T15:43:18.273Z,99596.19
2023-03-24T15:46:08.792Z,99607.44
2023-03-24T15:48:48.032Z,99599.34
2023-03-24T15:51:18.553Z,99601.44
2023-03-24T15:53:59.383Z,99610.84
2023-03-24T15:56:34.181Z,99617.28
2023-03-24T15:59:15.658Z,99624.47
2023-03-24T16:01:46.201Z,99618.84
2023-03-24T16:04:23.667Z,99618.91
2023-03-24T16:06:54.869Z,99611.22
2023-03-24T16:09:27.857Z,99600.56
2023-03-24T16:11:58.176Z,99609.59
2023-03-24T16:14:32.882Z,99603.06
2023-03-24T16:17:04.103Z,99603.97
2023-03-24T16:19:34.361Z,99604.75
2023-03-24T16:22:12.456Z,99602.03
2023-03-24T16:24:42.989Z,99597.69
2023-03-24T16:27:12.810Z,99609.81
2023-03-24T16:29:43.562Z,99610.25
2023-03-24T16:32:13.743Z,99616.38
2023-03-24T16:34:44.214Z,99620.53
2023-03-24T16:37:14.409Z,99622.88
2023-03-24T16:39:44.108Z,99627.16
2023-03-24T16:42:16.721Z,99623.44
2023-03-24T16:44:47.757Z,99622.00
2023-03-24T16:47:17.941Z,99620.63
2023-03-24T16:49:47.695Z,99629.66
2023-03-24T16:52:18.358Z,99635.88
2023-03-24T16:54:50.662Z,99631.38
2023-03-24T16:57:21.098Z,99633.59
2023-03-24T16:59:50.646Z,99646.97
2023-03-24T17:02:21.791Z,99645.41
2023-03-24T17:04:49.598Z,99643.84
2023-03-24T17:07:17.314Z,99642.25
2023-03-24T17:09:47.744Z,99643.13
2023-03-24T17:12:17.702Z,99643.06
2023-03-24T17:14:45.571Z,99649.44
2023-03-24T17:17:14.191Z,99646.47
2023-03-24T17:19:43.235Z,99654.25
2023-03-24T17:22:12.733Z,99651.94
2023-03-24T17:24:43.005Z,99646.84
2023-03-24T17:27:19.037Z,99647.22
2023-03-24T17:29:49.288Z,99656.78
2023-03-24T17:32:21.139Z,99654.69
2023-03-24T17:34:52.451Z,99662.22
2023-03-24T17:37:23.014Z,99667.25
2023-03-24T17:39:53.474Z,99671.94
2023-03-24T17:42:27.836Z,99675.75
2023-03-24T17:44:58.026Z,99685.28
2023-03-24T17:47:27.933Z,99680.47
2023-03-24T17:49:58.179Z,99680.81
2023-03-24T17:52:27.985Z,99683.16
2023-03-24T17:54:56.540Z,99692.25
2023-03-24T17:57:24.837Z,99698.13
2023-03-24T17:59:53.299Z,99689.69
2023-03-24T18:02:21.712Z,99693.94
2023-03-24T18:04:50.836Z,99691.47
2023-03-24T18:07:18.553Z,99694.69
2023-03-24T18:09:46.973Z,99694.28
2023-03-24T18:12:19.433Z,99694.34
2023-03-24T18:14:47.597Z,99691.69
2023-03-24T18:17:15.574Z,99696.75
2023-03-24T18:19:43.912Z,99701.47
2023-03-24T18:22:12.111Z,99703.09
2023-03-24T18:24:40.511Z,99700.81
2023-03-24T18:27:10.091Z,99704.63
2023-03-24T18:29:41.328Z,99697.59
2023-03-24T18:32:33.222Z,99697.72
2023-03-24T18:35:05.195Z,99705.22
2023-03-24T18:37:33.609Z,99701.25
2023-03-24T18:40:08.819Z,99700.22
2023-03-24T18:42:39.413Z,99697.00
2023-03-24T18:45:17.392Z,99696.06
2023-03-24T18:47:48.066Z,99694.53
2023-03-24T18:50:18.361Z,99681.94
2023-03-24T18:52:48.492Z,99692.19
2023-03-24T18:55:20.469Z,99703.94
2023-03-24T18:57:50.766Z,99698.53
2023-03-24T19:00:21.962Z,99703.34
2023-03-24T19:02:55.154Z,99711.09
2023-03-24T19:05:25.487Z,99706.09
2023-03-24T19:07:55.653Z,99713.06
2023-03-24T19:10:25.806Z,99715.31
2023-03-24T19:12:56.298Z,99717.66
2023-03-24T19:15:30.002Z,99714.16
2023-03-24T19:18:02.366Z,99723.09
2023-03-24T19:20:35.292Z,99720.66
2023-03-24T19:23:05.862Z,99726.63
2023-03-24T19:25:36.458Z,99716.75
2023-03-24T19:28:06.578Z,99721.47
2023-03-24T19:30:39.378Z,99718.34
2023-03-24T19:33:11.440Z,99719.31
2023-03-24T19:35:41.104Z,99732.34
2023-03-24T19:38:09.418Z,99740.38
2023-03-24T19:40:45.077Z,99750.69
2023-03-24T19:43:15.544Z,99748.50
2023-03-24T19:45:56.293Z,99743.88
2023-03-24T19:48:26.679Z,99739.63
2023-03-24T19:50:57.407Z,99743.59
2023-03-24T19:53:27.961Z,99744.94
2023-03-24T19:56:00.048Z,99751.78
2023-03-24T19:58:31.242Z,99749.06
2023-03-24T20:01:01.474Z,99753.78
2023-03-24T20:03:32.241Z,99756.59
2023-03-24T20:06:11.039Z,99763.78
2023-03-24T20:08:41.508Z,99769.13
2023-03-24T20:11:12.221Z,99785.03
2023-03-24T20:13:40.448Z,99787.16
2023-03-24T20:16:08.653Z,99784.56
2023-03-24T20:18:39.169Z,99768.00
2023-03-24T20:21:09.420Z,99763.09
2023-03-24T20:23:36.835Z,99769.31
2023-03-24T20:26:05.567Z,99767.66
2023-03-24T20:28:33.625Z,99779.22
2023-03-24T20:31:03.974Z,99776.75
2023-03-24T20:33:34.847Z,99769.81
2023-03-24T20:36:06.301Z,99781.81
2023-03-24T20:38:36.577Z,99784.94
2023-03-24T20:41:08.911Z,99784.44
2023-03-24T20:43:39.308Z,99780.03
2023-03-24T20:46:10.563Z,99774.34
2023-03-24T20:48:40.879Z,99782.66
2023-03-24T20:51:12.053Z,99779.09
2023-03-24T20:53:44.853Z,99782.53
2023-03-24T20:56:16.359Z,99781.84
2023-03-24T20:58:47.105Z,99781.69
2023-03-24T21:01:22.193Z,99783.00
2023-03-24T21:03:55.572Z,99784.31
2023-03-24T21:06:30.862Z,99774.09
2023-03-24T21:09:01.246Z,99777.00
2023-03-24T21:11:32.590Z,99777.34
2023-03-24T21:14:03.906Z,99778.28
2023-03-24T21:16:34.246Z,99779.13
2023-03-24T21:19:05.001Z,99785.13
2023-03-24T21:21:35.114Z,99785.75
2023-03-24T21:24:06.202Z,99793.56
2023-03-24T21:26:36.317Z,99785.91
2023-03-24T21:29:08.298Z,99795.50
2023-03-24T21:31:38.760Z,99797.56
2023-03-24T21:34:09.357Z,99792.50
2023-03-24T21:36:40.576Z,99790.16
2023-03-24T21:39:12.195Z,99784.31
2023-03-24T21:41:42.883Z,99767.38
2023-03-24T21:44:10.984Z,99766.03
2023-03-24T21:46:39.017Z,99769.28
2023-03-24T21:49:11.168Z,99764.41
2023-03-24T21:51:38.848Z,99761.84
2023-03-24T21:54:08.969Z,99757.00
2023-03-24T21:56:39.161Z,99760.22
2023-03-24T21:59:11.351Z,99764.63
2023-03-24T22:01:42.185Z,99760.63
2023-03-24T22:04:13.585Z,99771.00
2023-03-24T22:06:44.057Z,99765.34
2023-03-24T22:09:14.528Z,99768.81
2023-03-24T22:11:45.513Z,99768.38
2023-03-24T22:14:16.482Z,99761.72
2023-03-24T22:16:46.810Z,99767.41
2023-03-24T22:19:16.941Z,99757.84
2023-03-24T22:21:51.572Z,99756.72
2023-03-24T22:24:24.165Z,99748.09
2023-03-24T22:26:58.588Z,99745.66
2023-03-24T22:29:31.768Z,99753.00
2023-03-24T22:32:02.536Z,99758.50
2023-03-24T22:34:32.764Z,99764.50
2023-03-24T22:37:02.904Z,99765.66
2023-03-24T22:39:31.922Z,99757.69
2023-03-24T22:42:01.250Z,99752.97
2023-03-24T22:44:34.307Z,99755.25
2023-03-24T22:47:05.352Z,99755.56
2023-03-24T22:49:36.839Z,99763.38
2023-03-24T22:52:07.684Z,99763.69
2023-03-24T22:54:37.889Z,99757.69
2023-03-24T22:57:08.094Z,99745.38
2023-03-24T22:59:38.239Z,99751.38
2023-03-24T23:02:10.206Z,99747.31
2023-03-24T23:04:42.404Z,99756.72
2023-03-24T23:07:12.594Z,99746.34
2023-03-24T23:09:43.275Z,99763.22
2023-03-24T23:12:17.061Z,99765.97
2023-03-24T23:14:47.415Z,99774.72
2023-03-24T23:17:17.519Z,99769.38
2023-03-24T23:19:47.649Z,99770.50
2023-03-24T23:22:19.290Z,99765.81
2023-03-24T23:25:00.437Z,99766.13
2023-03-24T23:27:37.931Z,99758.19
2023-03-24T23:30:14.069Z,99764.03
2023-03-24T23:32:47.072Z,99762.72
2023-03-24T23:35:17.842Z,99767.75
2023-03-24T23:37:48.465Z,99759.16
2023-03-24T23:40:19.428Z,99758.34
2023-03-24T23:42:49.947Z,99750.41
2023-03-24T23:45:21.051Z,99756.56
2023-03-24T23:47:52.585Z,99756.56
2023-03-24T23:50:22.742Z,99754.13
2023-03-24T23:52:52.860Z,99748.31
2023-03-24T23:55:23.333Z,99754.28
2023-03-24T23:57:54.985Z,99747.97
